Time;durP1;ratioP1;P1;durP2;ratioP2;P2;SDS_P1;SDS_P2;PMS_P1;PMS_P2;Temp;Humidity;BMP_temperature;BMP_pressure;BME280_temperature;BME280_humidity;BME280_pressure;Samples;Min_cycle;Max_cycle;Signal;HPM_P1;HPM_P2
2023/05/23 00:00:06;;;;;;;;;;;;;;;12.69;64.30;98795.27;67928;1275;1016465;-69
2023/05/23 00:03:30;;;;;;;;;;;;;;;12.59;64.79;98795.29;67897;1275;1016330;-64
2023/05/23 00:06:35;;;;;;;;;;;;;;;12.54;65.20;98790.73;67922;1275;1016424;-63
2023/05/23 00:09:37;;;;;;;;;;;;;;;12.53;65.00;98787.94;67971;1275;1016343;-64
2023/05/23 00:12:41;;;;;;;;;;;;;;;12.55;64.65;98785.18;67932;1275;1016480;-63
2023/05/23 00:15:47;;;;;;;;;;;;;;;12.47;65.23;98786.61;65534;1276;5377758;-64
2023/05/23 00:18:58;;;;;;;;;;;;;;;12.57;65.37;98776.26;67937;1275;1016399;-64
2023/05/23 00:22:01;;;;;;;;;;;;;;;12.70;64.36;98774.87;67903;1275;1016435;-63
2023/05/23 00:25:04;;;;;;;;;;;;;;;12.74;64.40;98773.85;67956;1275;1016419;-71
2023/05/23 00:28:07;;;;;;;;;;;;;;;12.72;64.77;98771.34;67936;1275;1016280;-66
2023/05/23 00:31:09;;;;;;;;;;;;;;;12.72;65.09;98768.92;67988;1275;1016491;-70
2023/05/23 00:34:12;;;;;;;;;;;;;;;12.84;64.29;98767.16;67914;1275;1015979;-70
2023/05/23 00:37:15;;;;;;;;;;;;;;;12.85;64.18;98765.70;67957;1275;1016469;-64
2023/05/23 00:40:18;;;;;;;;;;;;;;;12.79;64.94;98764.03;67935;1275;1016443;-64
2023/05/23 00:43:21;;;;;;;;;;;;;;;12.73;64.97;98761.26;67953;1275;1016477;-65
2023/05/23 00:46:24;;;;;;;;;;;;;;;12.67;64.88;98758.90;67953;1275;1016334;-64
2023/05/23 00:49:27;;;;;;;;;;;;;;;12.67;64.77;98755.06;67926;1275;1016472;-63
2023/05/23 00:52:30;;;;;;;;;;;;;;;12.69;64.40;98752.11;67953;1275;1016303;-69
2023/05/23 00:55:33;;;;;;;;;;;;;;;12.57;64.56;98754.18;67922;1275;1016418;-63
2023/05/23 00:58:37;;;;;;;;;;;;;;;12.54;64.51;98758.63;67921;1275;1016347;-64
2023/05/23 01:01:40;;;;;;;;;;;;;;;12.44;64.72;98755.80;67954;1275;1016456;-63
2023/05/23 01:04:43;;;;;;;;;;;;;;;12.31;64.62;98755.48;67958;1275;1016305;-64
2023/05/23 01:07:45;;;;;;;;;;;;;;;12.18;64.58;98750.36;67932;1275;1016443;-67
2023/05/23 01:10:48;;;;;;;;;;;;;;;12.14;64.29;98750.64;67917;1275;1016138;-64
2023/05/23 01:13:52;;;;;;;;;;;;;;;12.00;65.08;98756.15;67945;1275;1016236;-63
2023/05/23 01:16:56;;;;;;;;;;;;;;;11.85;65.30;98760.79;67955;1275;1015982;-66
2023/05/23 01:20:00;;;;;;;;;;;;;;;11.75;65.87;98758.52;67924;1275;1016458;-64
2023/05/23 01:23:04;;;;;;;;;;;;;;;11.71;65.94;98757.17;67923;1275;1016352;-68
2023/05/23 01:26:07;;;;;;;;;;;;;;;11.68;65.55;98758.62;67852;1275;1016212;-70
2023/05/23 01:29:10;;;;;;;;;;;;;;;11.65;65.50;98756.53;67960;1275;1016316;-67
2023/05/23 01:32:14;;;;;;;;;;;;;;;11.74;65.83;98754.48;67979;1275;1016202;-67
2023/05/23 01:35:18;;;;;;;;;;;;;;;11.85;66.13;98753.13;67982;1275;1016427;-64
2023/05/23 01:38:22;;;;;;;;;;;;;;;11.83;66.04;98754.11;67946;1275;1015850;-65
2023/05/23 01:41:25;;;;;;;;;;;;;;;11.88;66.10;98750.13;67919;1275;1016417;-70
2023/05/23 01:44:30;;;;;;;;;;;;;;;11.77;65.62;98743.67;67917;1275;1016494;-64
2023/05/23 01:47:33;;;;;;;;;;;;;;;11.72;65.58;98738.37;67960;1275;1016793;-69
2023/05/23 01:50:36;;;;;;;;;;;;;;;11.69;65.44;98736.44;67923;1275;1016373;-64
2023/05/23 01:53:40;;;;;;;;;;;;;;;11.67;65.67;98737.70;67916;1275;1016467;-65
2023/05/23 01:56:44;;;;;;;;;;;;;;;11.68;66.05;98743.39;67890;1275;1016310;-65
2023/05/23 01:59:47;;;;;;;;;;;;;;;11.63;66.09;98742.13;67950;1275;1016387;-64
2023/05/23 02:02:50;;;;;;;;;;;;;;;11.57;66.28;98740.58;67934;1275;1016426;-65
2023/05/23 02:05:54;;;;;;;;;;;;;;;11.45;67.22;98735.63;67906;1275;1016413;-64
2023/05/23 02:08:57;;;;;;;;;;;;;;;11.45;67.54;98735.29;67968;1275;1016478;-65
2023/05/23 02:12:01;;;;;;;;;;;;;;;11.46;67.33;98725.94;67906;1275;1016413;-70
2023/05/23 02:15:07;;;;;;;;;;;;;;;11.48;66.72;98722.28;67957;1275;1018661;-64
2023/05/23 02:18:11;;;;;;;;;;;;;;;11.37;66.51;98719.86;67903;1275;1016536;-64
2023/05/23 02:21:15;;;;;;;;;;;;;;;11.36;66.86;98721.52;67939;1275;1016157;-65
2023/05/23 02:24:18;;;;;;;;;;;;;;;11.34;66.89;98716.88;67970;1275;1015971;-65
2023/05/23 02:27:22;;;;;;;;;;;;;;;11.33;67.00;98714.86;67910;1275;1016144;-65
2023/05/23 02:30:25;;;;;;;;;;;;;;;11.43;66.79;98714.35;67937;1275;1016490;-69
2023/05/23 02:33:28;;;;;;;;;;;;;;;11.41;67.31;98719.07;67948;1275;1016458;-69
2023/05/23 02:36:32;;;;;;;;;;;;;;;11.38;67.41;98718.04;67879;1275;1016461;-64
2023/05/23 02:39:35;;;;;;;;;;;;;;;11.19;67.71;98717.88;67946;1275;1016707;-64
2023/05/23 02:42:39;;;;;;;;;;;;;;;11.31;66.33;98717.27;67938;1275;1016510;-67
2023/05/23 02:45:42;;;;;;;;;;;;;;;11.25;66.03;98720.32;67991;1275;1016485;-65
2023/05/23 02:48:45;;;;;;;;;;;;;;;11.18;66.09;98721.11;67984;1275;1016761;-69
2023/05/23 02:51:49;;;;;;;;;;;;;;;11.26;65.85;98720.01;67976;1275;1016451;-65
2023/05/23 02:54:54;;;;;;;;;;;;;;;11.19;66.23;98721.52;67967;1275;1016218;-69
2023/05/23 02:57:58;;;;;;;;;;;;;;;10.94;67.32;98717.56;67923;1275;1016404;-66
2023/05/23 03:01:02;;;;;;;;;;;;;;;10.70;67.96;98711.36;67963;1275;1016172;-69
2023/05/23 03:04:06;;;;;;;;;;;;;;;10.62;68.41;98709.42;67923;1275;1016075;-69
2023/05/23 03:07:11;;;;;;;;;;;;;;;10.78;68.52;98709.81;67959;1275;1016519;-65
2023/05/23 03:10:15;;;;;;;;;;;;;;;10.93;68.79;98710.98;67945;1275;1016400;-64
2023/05/23 03:13:18;;;;;;;;;;;;;;;11.20;68.66;98711.30;67894;1275;1016426;-65
2023/05/23 03:16:22;;;;;;;;;;;;;;;11.49;67.46;98710.14;67978;1275;1016430;-68
2023/05/23 03:19:26;;;;;;;;;;;;;;;11.41;67.44;98710.16;67937;1275;1016439;-66
2023/05/23 03:22:29;;;;;;;;;;;;;;;11.35;67.93;98706.70;67927;1275;1016262;-65
2023/05/23 03:25:33;;;;;;;;;;;;;;;11.45;68.04;98704.98;67891;1275;1016409;-65
2023/05/23 03:28:36;;;;;;;;;;;;;;;11.50;68.26;98703.27;67959;1275;1016137;-68
2023/05/23 03:31:39;;;;;;;;;;;;;;;11.67;68.32;98700.72;67877;1275;1016585;-67
2023/05/23 03:34:42;;;;;;;;;;;;;;;11.94;67.49;98702.95;67956;1275;1016942;-68
2023/05/23 03:37:49;;;;;;;;;;;;;;;12.20;67.27;98697.83;67940;1275;1016506;-68
2023/05/23 03:40:52;;;;;;;;;;;;;;;12.53;66.65;98693.74;67969;1275;1016335;-64
2023/05/23 03:43:56;;;;;;;;;;;;;;;12.71;66.90;98691.61;67956;1275;1016352;-69
2023/05/23 03:47:00;;;;;;;;;;;;;;;13.05;66.25;98685.61;67933;1275;1016180;-64
2023/05/23 03:50:04;;;;;;;;;;;;;;;13.30;65.90;98685.02;67975;1275;1018605;-69
2023/05/23 03:53:07;;;;;;;;;;;;;;;13.56;65.42;98683.88;67936;1275;1016414;-69
2023/05/23 03:56:10;;;;;;;;;;;;;;;13.65;65.30;98684.71;67938;1275;1015940;-64
2023/05/23 03:59:15;;;;;;;;;;;;;;;13.89;65.30;98682.72;67928;1275;1015995;-64
2023/05/23 04:02:19;;;;;;;;;;;;;;;14.16;64.87;98688.57;67947;1275;1015829;-64
2023/05/23 04:05:23;;;;;;;;;;;;;;;14.30;64.22;98683.79;67852;1275;1015959;-66
2023/05/23 04:08:28;;;;;;;;;;;;;;;14.36;64.97;98680.16;67927;1275;1016409;-64
2023/05/23 04:11:32;;;;;;;;;;;;;;;14.57;65.02;98673.91;67883;1275;1015815;-69
2023/05/23 04:14:36;;;;;;;;;;;;;;;14.87;63.97;98671.03;67916;1275;1016468;-69
2023/05/23 04:17:40;;;;;;;;;;;;;;;14.96;64.61;98669.23;67872;1275;1019076;-65
2023/05/23 04:20:43;;;;;;;;;;;;;;;15.05;63.82;98669.21;67936;1275;1018441;-70
2023/05/23 04:23:47;;;;;;;;;;;;;;;15.30;63.13;98663.01;67919;1275;1016140;-71
2023/05/23 04:26:51;;;;;;;;;;;;;;;15.42;63.02;98665.29;67949;1275;1016430;-65
2023/05/23 04:29:57;;;;;;;;;;;;;;;15.54;63.80;98662.69;67962;1275;1016318;-71
2023/05/23 04:33:00;;;;;;;;;;;;;;;15.92;64.12;98665.54;67961;1275;1016416;-70
2023/05/23 04:36:02;;;;;;;;;;;;;;;16.39;62.49;98660.56;67984;1275;1016466;-64
2023/05/23 04:39:06;;;;;;;;;;;;;;;16.84;61.59;98658.39;67946;1275;1016632;-71
2023/05/23 04:42:09;;;;;;;;;;;;;;;17.23;61.81;98658.81;67928;1275;1015992;-69
2023/05/23 04:45:13;;;;;;;;;;;;;;;17.57;61.57;98654.48;67980;1275;1018076;-72
2023/05/23 04:48:20;;;;;;;;;;;;;;;17.81;61.59;98654.54;67944;1275;1017126;-66
2023/05/23 04:51:24;;;;;;;;;;;;;;;18.22;61.33;98653.56;67873;1275;1016024;-64
2023/05/23 04:54:30;;;;;;;;;;;;;;;18.56;60.52;98649.61;67984;1275;1020231;-64
2023/05/23 04:57:34;;;;;;;;;;;;;;;18.67;60.96;98653.85;67941;1275;1016432;-68
2023/05/23 05:00:39;;;;;;;;;;;;;;;19.01;60.96;98649.67;67946;1275;1016440;-71
2023/05/23 05:03:42;;;;;;;;;;;;;;;19.42;61.28;98650.06;67896;1275;1016435;-71
2023/05/23 05:06:47;;;;;;;;;;;;;;;19.82;60.17;98648.15;67933;1275;1018279;-72
2023/05/23 05:09:51;;;;;;;;;;;;;;;20.11;59.89;98650.90;67883;1275;1016063;-68
2023/05/23 05:12:55;;;;;;;;;;;;;;;20.48;59.40;98648.63;67963;1275;1016540;-72
2023/05/23 05:15:57;;;;;;;;;;;;;;;20.86;55.90;98651.64;67939;1275;1016467;-72
2023/05/23 05:19:00;;;;;;;;;;;;;;;21.05;55.58;98652.91;67952;1275;1016471;-67
2023/05/23 05:22:04;;;;;;;;;;;;;;;21.44;54.82;98651.30;67905;1275;1016449;-69
2023/05/23 05:25:08;;;;;;;;;;;;;;;21.73;53.66;98648.98;67902;1275;1016399;-71
2023/05/23 05:28:11;;;;;;;;;;;;;;;22.03;53.00;98646.39;67920;1275;1016356;-72
2023/05/23 05:31:16;;;;;;;;;;;;;;;22.29;52.02;98645.70;67916;1275;1016399;-64
2023/05/23 05:34:20;;;;;;;;;;;;;;;22.63;51.63;98644.03;67972;1275;1016150;-71
2023/05/23 05:37:23;;;;;;;;;;;;;;;22.87;50.10;98641.45;67968;1275;1018436;-64
2023/05/23 05:40:26;;;;;;;;;;;;;;;23.05;50.59;98634.95;67927;1275;1016477;-72
2023/05/23 05:43:30;;;;;;;;;;;;;;;23.38;49.90;98635.74;67908;1275;1016495;-70
2023/05/23 05:46:32;;;;;;;;;;;;;;;23.54;49.14;98631.75;67943;1275;1016433;-64
2023/05/23 05:49:36;;;;;;;;;;;;;;;23.79;48.75;98630.53;67915;1275;1016313;-69
2023/05/23 05:52:39;;;;;;;;;;;;;;;24.03;48.21;98628.13;67985;1275;1018471;-72
2023/05/23 05:55:43;;;;;;;;;;;;;;;24.29;46.49;98626.35;67958;1275;1016349;-72
2023/05/23 05:58:46;;;;;;;;;;;;;;;24.36;45.58;98623.70;67982;1275;1016060;-67
2023/05/23 06:01:50;;;;;;;;;;;;;;;24.50;45.31;98620.58;67934;1275;1016239;-72
2023/05/23 06:04:52;;;;;;;;;;;;;;;24.51;43.56;98614.20;67921;1275;1016464;-72
2023/05/23 06:07:55;;;;;;;;;;;;;;;24.59;43.81;98613.05;68004;1275;1016218;-72
2023/05/23 06:10:58;;;;;;;;;;;;;;;24.62;42.51;98608.23;67950;1275;1016295;-72
2023/05/23 06:14:02;;;;;;;;;;;;;;;24.81;42.91;98605.19;67930;1275;1016119;-72
2023/05/23 06:17:06;;;;;;;;;;;;;;;24.98;41.94;98608.07;67912;1275;1016420;-71
2023/05/23 06:20:09;;;;;;;;;;;;;;;25.27;41.94;98606.92;67979;1275;1016102;-72
2023/05/23 06:23:13;;;;;;;;;;;;;;;25.50;39.20;98602.52;67898;1275;1016284;-68
2023/05/23 06:26:16;;;;;;;;;;;;;;;25.67;38.71;98596.98;67926;1275;1016642;-65
2023/05/23 06:29:19;;;;;;;;;;;;;;;25.72;38.03;98595.59;67971;1275;1016432;-65
2023/05/23 06:32:23;;;;;;;;;;;;;;;25.76;37.39;98594.37;67951;1275;1016428;-64
2023/05/23 06:35:26;;;;;;;;;;;;;;;25.80;37.60;98595.55;67985;1275;1016264;-69
2023/05/23 06:38:29;;;;;;;;;;;;;;;26.06;37.58;98594.44;67904;1275;1016356;-64
2023/05/23 06:41:32;;;;;;;;;;;;;;;26.33;37.42;98593.15;67879;1275;1016392;-65
2023/05/23 06:44:35;;;;;;;;;;;;;;;26.46;36.23;98588.23;67938;1275;1016290;-64
2023/05/23 06:47:37;;;;;;;;;;;;;;;26.56;36.84;98592.57;67960;1275;1016626;-65
2023/05/23 06:50:40;;;;;;;;;;;;;;;26.83;36.41;98590.21;67988;1275;1016502;-72
2023/05/23 06:53:42;;;;;;;;;;;;;;;27.00;36.14;98583.44;67935;1275;1016505;-72
2023/05/23 06:57:00;;;;;;;;;;;;;;;27.22;35.62;98584.77;67932;1275;1016362;-66
2023/05/23 07:00:04;;;;;;;;;;;;;;;27.53;35.87;98581.20;67996;1275;1016388;-70
2023/05/23 07:03:08;;;;;;;;;;;;;;;27.72;35.18;98579.61;68029;1275;1016363;-62
2023/05/23 07:06:11;;;;;;;;;;;;;;;27.75;34.73;98579.04;67993;1275;1016465;-66
2023/05/23 07:09:14;;;;;;;;;;;;;;;27.83;34.81;98574.45;67976;1275;1016484;-66
2023/05/23 07:12:18;;;;;;;;;;;;;;;28.06;34.62;98574.45;68002;1275;1016506;-70
2023/05/23 07:15:21;;;;;;;;;;;;;;;28.34;34.63;98574.61;67969;1275;1016450;-65
2023/05/23 07:18:24;;;;;;;;;;;;;;;28.49;33.56;98571.67;67965;1275;1016243;-64
2023/05/23 07:21:28;;;;;;;;;;;;;;;28.63;33.42;98567.84;68005;1275;1016495;-62
2023/05/23 07:24:31;;;;;;;;;;;;;;;28.82;33.06;98571.41;67940;1275;1019652;-68
2023/05/23 07:27:34;;;;;;;;;;;;;;;28.92;33.45;98570.32;68022;1275;1016478;-63
2023/05/23 07:30:37;;;;;;;;;;;;;;;28.93;32.73;98565.62;67951;1275;1018043;-71
2023/05/23 07:33:40;;;;;;;;;;;;;;;28.95;32.29;98563.23;67939;1275;1016181;-70
2023/05/23 07:36:42;;;;;;;;;;;;;;;28.87;31.84;98558.63;67928;1275;1016498;-62
2023/05/23 07:39:45;;;;;;;;;;;;;;;28.68;31.15;98557.17;67969;1275;1018197;-63
2023/05/23 07:42:52;;;;;;;;;;;;;;;28.83;31.81;98559.17;67950;1275;1016499;-66
2023/05/23 07:45:55;;;;;;;;;;;;;;;28.82;31.72;98555.48;67968;1275;1016363;-70
2023/05/23 07:48:59;;;;;;;;;;;;;;;28.73;31.48;98554.41;67984;1275;1016350;-70
2023/05/23 07:52:02;;;;;;;;;;;;;;;28.64;31.17;98550.05;67992;1275;1016164;-62
2023/05/23 07:55:05;;;;;;;;;;;;;;;28.89;31.11;98550.15;67905;1275;1018189;-65
2023/05/23 07:58:08;;;;;;;;;;;;;;;28.90;30.88;98548.23;67977;1275;1015900;-70
2023/05/23 08:01:11;;;;;;;;;;;;;;;29.07;30.03;98542.89;68013;1275;1016434;-71
2023/05/23 08:04:13;;;;;;;;;;;;;;;29.21;29.98;98535.75;67995;1275;1016340;-69
2023/05/23 08:07:16;;;;;;;;;;;;;;;29.01;28.58;98531.36;67958;1275;1018622;-70
2023/05/23 08:10:18;;;;;;;;;;;;;;;28.93;29.98;98534.66;68015;1275;1016447;-71
2023/05/23 08:13:21;;;;;;;;;;;;;;;29.18;29.69;98533.27;67960;1275;1017228;-71
2023/05/23 08:16:23;;;;;;;;;;;;;;;29.54;30.41;98533.16;68022;1275;1016445;-62
2023/05/23 08:19:26;;;;;;;;;;;;;;;29.78;29.23;98536.14;67960;1275;1016458;-63
2023/05/23 08:22:30;;;;;;;;;;;;;;;29.73;29.06;98536.31;67988;1275;1016447;-70
2023/05/23 08:25:33;;;;;;;;;;;;;;;29.73;28.91;98538.73;68028;1275;1016278;-64
2023/05/23 08:28:36;;;;;;;;;;;;;;;29.72;28.63;98542.77;67953;1275;1016199;-71
2023/05/23 08:31:38;;;;;;;;;;;;;;;29.80;28.99;98542.24;67973;1275;1016332;-62
2023/05/23 08:34:41;;;;;;;;;;;;;;;29.88;29.04;98539.84;68021;1275;1016414;-71
2023/05/23 08:37:45;;;;;;;;;;;;;;;29.78;28.87;98539.97;67920;1275;1016433;-70
2023/05/23 08:40:48;;;;;;;;;;;;;;;30.05;29.42;98537.55;67997;1275;1016099;-71
2023/05/23 08:43:51;;;;;;;;;;;;;;;30.37;28.88;98531.48;67966;1275;1016689;-70
2023/05/23 08:46:54;;;;;;;;;;;;;;;30.55;28.60;98533.21;68012;1275;1016414;-63
2023/05/23 08:49:56;;;;;;;;;;;;;;;30.45;27.58;98535.42;67967;1275;1016477;-71
2023/05/23 08:53:00;;;;;;;;;;;;;;;30.37;28.12;98534.35;68010;1275;1016273;-67
2023/05/23 08:56:02;;;;;;;;;;;;;;;30.36;27.48;98540.11;67976;1275;1016376;-71
2023/05/23 08:59:05;;;;;;;;;;;;;;;30.03;27.73;98543.57;67933;1275;1016350;-69
2023/05/23 09:02:07;;;;;;;;;;;;;;;29.91;28.02;98542.75;67989;1275;1016472;-71
2023/05/23 09:05:11;;;;;;;;;;;;;;;30.25;28.13;98538.38;67998;1275;1015965;-71
2023/05/23 09:08:14;;;;;;;;;;;;;;;30.38;28.10;98541.55;67997;1275;1016403;-63
2023/05/23 09:11:17;;;;;;;;;;;;;;;30.53;27.28;98542.34;67964;1275;1016405;-71
2023/05/23 09:14:21;;;;;;;;;;;;;;;30.70;27.18;98543.13;68011;1275;1016242;-71
2023/05/23 09:17:23;;;;;;;;;;;;;;;30.93;27.85;98537.30;68013;1275;1016406;-63
2023/05/23 09:20:27;;;;;;;;;;;;;;;31.31;27.88;98536.39;67950;1275;1016422;-70
2023/05/23 09:23:29;;;;;;;;;;;;;;;31.42;25.99;98531.05;68004;1275;1016439;-71
2023/05/23 09:26:32;;;;;;;;;;;;;;;31.33;26.01;98534.01;68060;1275;1016342;-63
2023/05/23 09:29:34;;;;;;;;;;;;;;;31.51;26.93;98538.10;67982;1275;1015963;-64
2023/05/23 09:32:37;;;;;;;;;;;;;;;31.70;26.24;98536.26;67981;1275;1016435;-63
2023/05/23 09:35:40;;;;;;;;;;;;;;;31.63;26.21;98537.50;68025;1275;1016300;-72
2023/05/23 09:38:43;;;;;;;;;;;;;;;31.67;25.88;98535.33;67965;1275;1016457;-63
2023/05/23 09:41:46;;;;;;;;;;;;;;;31.68;25.65;98534.26;68007;1275;1016780;-63
2023/05/23 09:44:48;;;;;;;;;;;;;;;31.43;24.95;98526.63;67955;1275;1016604;-72
2023/05/23 09:47:51;;;;;;;;;;;;;;;31.13;25.46;98525.36;67952;1275;1016504;-62
2023/05/23 09:50:54;;;;;;;;;;;;;;;31.34;25.61;98527.69;67959;1275;1015967;-66
2023/05/23 09:53:57;;;;;;;;;;;;;;;31.56;24.76;98519.06;67990;1275;1017858;-71
2023/05/23 09:57:00;;;;;;;;;;;;;;;31.74;24.94;98522.77;67927;1275;1016351;-71
2023/05/23 10:00:04;;;;;;;;;;;;;;;32.00;24.94;98516.64;67989;1275;1016724;-63
2023/05/23 10:03:09;;;;;;;;;;;;;;;32.05;24.61;98519.72;67936;1275;1016894;-71
2023/05/23 10:06:12;;;;;;;;;;;;;;;32.07;25.06;98511.67;67933;1275;1018654;-72
2023/05/23 10:09:14;;;;;;;;;;;;;;;32.61;25.86;98511.45;68025;1275;1016477;-69
2023/05/23 10:12:17;;;;;;;;;;;;;;;32.79;24.36;98504.45;68035;1275;1016714;-62
2023/05/23 10:15:20;;;;;;;;;;;;;;;32.88;24.66;98506.43;67952;1275;1016246;-62
2023/05/23 10:18:23;;;;;;;;;;;;;;;32.72;24.49;98501.86;67996;1275;1016241;-68
2023/05/23 10:21:25;;;;;;;;;;;;;;;32.62;24.77;98500.71;67999;1275;1016489;-63
2023/05/23 10:24:28;;;;;;;;;;;;;;;32.57;24.71;98495.30;67974;1275;1015826;-63
2023/05/23 10:27:31;;;;;;;;;;;;;;;32.23;24.15;98486.59;67941;1275;1016087;-62
2023/05/23 10:30:33;;;;;;;;;;;;;;;31.52;24.24;98482.14;67974;1275;1016150;-63
2023/05/23 10:33:36;;;;;;;;;;;;;;;31.47;25.10;98483.16;67991;1275;1016197;-62
2023/05/23 10:36:39;;;;;;;;;;;;;;;31.47;24.90;98480.05;68010;1275;1016760;-63
2023/05/23 10:39:43;;;;;;;;;;;;;;;31.48;25.25;98481.94;67953;1275;1016376;-66
2023/05/23 10:42:45;;;;;;;;;;;;;;;31.87;24.88;98478.63;68021;1275;1016319;-62
2023/05/23 10:45:50;;;;;;;;;;;;;;;32.21;24.87;98473.17;67988;1275;1016461;-71
2023/05/23 10:48:53;;;;;;;;;;;;;;;32.50;24.39;98474.40;67983;1275;1015963;-63
2023/05/23 10:51:55;;;;;;;;;;;;;;;32.68;24.28;98474.22;67996;1275;1016357;-62
2023/05/23 10:54:58;;;;;;;;;;;;;;;33.05;24.19;98475.56;68001;1275;1016359;-65
2023/05/23 10:58:02;;;;;;;;;;;;;;;33.19;24.09;98472.80;67992;1275;1016859;-62
2023/05/23 11:01:05;;;;;;;;;;;;;;;33.39;24.25;98471.58;68031;1275;1016458;-62
2023/05/23 11:04:08;;;;;;;;;;;;;;;33.87;24.27;98465.06;67974;1275;1016115;-66
2023/05/23 11:07:10;;;;;;;;;;;;;;;34.13;24.20;98470.52;68017;1275;1016500;-66
2023/05/23 11:10:13;;;;;;;;;;;;;;;33.83;23.54;98467.80;67988;1275;1016469;-70
2023/05/23 11:13:16;;;;;;;;;;;;;;;33.78;23.03;98462.98;68003;1275;1016257;-71
2023/05/23 11:16:19;;;;;;;;;;;;;;;33.69;24.11;98456.73;68026;1275;1016217;-71
2023/05/23 11:19:23;;;;;;;;;;;;;;;33.96;23.81;98457.66;67982;1275;1020148;-72
2023/05/23 11:22:26;;;;;;;;;;;;;;;33.94;23.46;98453.84;67981;1275;1016261;-63
2023/05/23 11:25:28;;;;;;;;;;;;;;;33.94;23.83;98451.81;67995;1275;1016323;-63
2023/05/23 11:28:31;;;;;;;;;;;;;;;34.01;23.78;98452.55;68014;1275;1016403;-70
2023/05/23 11:31:34;;;;;;;;;;;;;;;33.91;22.92;98445.46;68007;1275;1016354;-63
2023/05/23 11:34:36;;;;;;;;;;;;;;;33.79;23.40;98442.24;67984;1275;1016857;-71
2023/05/23 11:37:39;;;;;;;;;;;;;;;33.78;23.91;98437.61;67958;1275;1016109;-62
2023/05/23 11:40:42;;;;;;;;;;;;;;;33.91;23.64;98440.69;67984;1275;1018106;-63
2023/05/23 11:43:45;;;;;;;;;;;;;;;34.02;24.10;98436.34;67977;1275;1017139;-67
2023/05/23 11:46:47;;;;;;;;;;;;;;;34.23;23.20;98440.02;68043;1275;1016538;-62
2023/05/23 11:49:50;;;;;;;;;;;;;;;34.42;23.10;98433.59;67970;1275;1016543;-62
2023/05/23 11:52:53;;;;;;;;;;;;;;;34.45;22.60;98437.32;67961;1275;1016187;-69
2023/05/23 11:55:57;;;;;;;;;;;;;;;34.34;22.88;98439.14;67991;1275;1016329;-63
2023/05/23 11:58:59;;;;;;;;;;;;;;;34.45;22.89;98437.91;68005;1275;1016277;-65
2023/05/23 12:02:02;;;;;;;;;;;;;;;34.63;22.61;98438.43;68029;1275;1016681;-67
2023/05/23 12:05:05;;;;;;;;;;;;;;;34.55;21.97;98434.20;67965;1275;1016532;-66
2023/05/23 12:08:07;;;;;;;;;;;;;;;34.43;22.50;98434.19;67998;1275;1016386;-63
2023/05/23 12:11:11;;;;;;;;;;;;;;;34.34;22.35;98429.27;68010;1275;1016456;-66
2023/05/23 12:14:14;;;;;;;;;;;;;;;33.80;22.09;98429.57;67967;1275;1016512;-68
2023/05/23 12:17:17;;;;;;;;;;;;;;;33.56;22.73;98428.41;66364;1275;3383847;-71
2023/05/23 12:20:20;;;;;;;;;;;;;;;33.55;22.70;98426.16;68040;1275;1016474;-71
2023/05/23 12:23:22;;;;;;;;;;;;;;;33.55;22.71;98422.64;67979;1275;1016491;-71
2023/05/23 12:26:25;;;;;;;;;;;;;;;33.46;22.68;98416.42;67999;1275;1016977;-65
2023/05/23 12:29:28;;;;;;;;;;;;;;;33.65;23.29;98418.22;67963;1275;1016324;-70
2023/05/23 12:32:31;;;;;;;;;;;;;;;33.64;23.22;98420.84;67967;1275;1016478;-72
2023/05/23 12:35:33;;;;;;;;;;;;;;;33.60;23.32;98422.03;67927;1275;1016519;-71
2023/05/23 12:38:36;;;;;;;;;;;;;;;33.26;22.63;98418.78;68007;1275;1016253;-64
2023/05/23 12:41:39;;;;;;;;;;;;;;;33.00;23.55;98424.39;67963;1275;1016389;-71
2023/05/23 12:44:44;;;;;;;;;;;;;;;33.09;22.97;98424.35;68008;1275;1016744;-63
2023/05/23 12:47:47;;;;;;;;;;;;;;;33.69;23.69;98423.17;67980;1275;1016509;-63
2023/05/23 12:50:49;;;;;;;;;;;;;;;34.34;23.51;98419.61;67947;1275;1016401;-71
2023/05/23 12:53:52;;;;;;;;;;;;;;;34.83;23.20;98416.38;68017;1275;1016359;-71
2023/05/23 12:56:54;;;;;;;;;;;;;;;35.25;22.35;98410.75;68026;1275;1016415;-71
2023/05/23 12:59:57;;;;;;;;;;;;;;;35.51;22.61;98407.94;67985;1275;1016513;-67
2023/05/23 13:03:00;;;;;;;;;;;;;;;35.74;22.63;98403.66;67989;1275;1016953;-62
2023/05/23 13:06:03;;;;;;;;;;;;;;;36.02;22.34;98396.53;68017;1275;1016687;-63
2023/05/23 13:09:05;;;;;;;;;;;;;;;36.25;21.60;98385.30;67943;1275;1016920;-63
2023/05/23 13:12:08;;;;;;;;;;;;;;;36.19;21.98;98381.10;67949;1275;1016222;-63
2023/05/23 13:15:10;;;;;;;;;;;;;;;36.21;22.69;98374.83;68014;1275;1016263;-62
2023/05/23 13:18:13;;;;;;;;;;;;;;;36.34;22.22;98370.80;67987;1275;1016428;-68
2023/05/23 13:21:15;;;;;;;;;;;;;;;36.27;21.98;98372.22;67985;1275;1016196;-63
2023/05/23 13:24:17;;;;;;;;;;;;;;;35.76;21.20;98370.55;67968;1275;1016236;-66
2023/05/23 13:27:20;;;;;;;;;;;;;;;34.96;21.60;98371.46;67950;1275;1016415;-62
2023/05/23 13:30:23;;;;;;;;;;;;;;;34.52;22.63;98377.92;67993;1275;1016385;-68
2023/05/23 13:33:25;;;;;;;;;;;;;;;34.30;22.74;98375.25;67930;1275;1016376;-63
2023/05/23 13:36:28;;;;;;;;;;;;;;;34.10;23.04;98375.16;67983;1275;1016215;-64
2023/05/23 13:39:31;;;;;;;;;;;;;;;33.80;23.00;98376.11;67991;1275;1016049;-71
2023/05/23 13:42:35;;;;;;;;;;;;;;;33.66;23.47;98375.73;68028;1275;1016297;-72
2023/05/23 13:45:38;;;;;;;;;;;;;;;33.65;23.65;98367.51;67949;1275;1016800;-62
2023/05/23 13:48:40;;;;;;;;;;;;;;;33.74;23.22;98362.55;67978;1275;1016187;-66
2023/05/23 13:51:43;;;;;;;;;;;;;;;33.59;23.25;98363.37;67877;1275;1016088;-64
2023/05/23 13:54:46;;;;;;;;;;;;;;;33.45;23.31;98369.46;67952;1275;1016021;-71
2023/05/23 13:57:49;;;;;;;;;;;;;;;33.63;23.64;98370.27;68009;1275;1016459;-71
2023/05/23 14:00:51;;;;;;;;;;;;;;;33.73;23.75;98375.21;67965;1275;1016308;-63
2023/05/23 14:03:54;;;;;;;;;;;;;;;34.03;24.16;98376.89;67967;1275;1016200;-67
2023/05/23 14:06:56;;;;;;;;;;;;;;;34.54;23.88;98376.89;67967;1275;1016883;-63
2023/05/23 14:09:59;;;;;;;;;;;;;;;35.09;23.52;98380.09;67993;1275;1016491;-71
2023/05/23 14:13:01;;;;;;;;;;;;;;;35.55;23.19;98378.94;67957;1275;1016462;-69
2023/05/23 14:16:04;;;;;;;;;;;;;;;35.31;21.58;98376.13;67942;1275;1016179;-70
2023/05/23 14:19:06;;;;;;;;;;;;;;;35.40;23.35;98380.46;67959;1275;1016234;-68
2023/05/23 14:22:09;;;;;;;;;;;;;;;35.74;23.12;98383.59;67970;1275;1016078;-71
2023/05/23 14:25:11;;;;;;;;;;;;;;;35.85;22.82;98382.42;68000;1275;1018430;-72
2023/05/23 14:28:13;;;;;;;;;;;;;;;35.91;22.71;98382.06;67978;1275;1016269;-72
2023/05/23 14:31:16;;;;;;;;;;;;;;;35.71;23.02;98386.67;67967;1275;1016316;-68
2023/05/23 14:34:18;;;;;;;;;;;;;;;35.35;22.69;98387.22;67962;1274;1016362;-72
2023/05/23 14:37:21;;;;;;;;;;;;;;;35.13;23.07;98380.77;67941;1275;1015989;-68
2023/05/23 14:40:23;;;;;;;;;;;;;;;35.06;23.53;98380.19;67922;1275;1016696;-71
2023/05/23 14:43:26;;;;;;;;;;;;;;;35.15;22.73;98380.06;67954;1275;1016427;-66
2023/05/23 14:46:28;;;;;;;;;;;;;;;34.88;23.16;98379.59;67899;1275;1018431;-67
2023/05/23 14:49:31;;;;;;;;;;;;;;;34.53;23.18;98380.05;67956;1275;1016352;-64
2023/05/23 14:52:33;;;;;;;;;;;;;;;34.45;23.56;98373.25;67963;1275;1018462;-65
2023/05/23 14:55:36;;;;;;;;;;;;;;;34.60;23.87;98372.04;67952;1275;1016485;-67
2023/05/23 14:58:44;;;;;;;;;;;;;;;34.61;23.96;98370.74;67913;1275;1016503;-70
2023/05/23 15:01:46;;;;;;;;;;;;;;;34.80;23.84;98368.05;67933;1275;1016302;-65
2023/05/23 15:04:49;;;;;;;;;;;;;;;35.40;23.55;98365.13;67969;1275;1016684;-68
2023/05/23 15:07:52;;;;;;;;;;;;;;;36.61;23.12;98363.45;67994;1275;1016520;-71
2023/05/23 15:10:54;;;;;;;;;;;;;;;38.00;22.04;98364.55;67935;1275;1016374;-72
2023/05/23 15:13:58;;;;;;;;;;;;;;;39.02;21.02;98356.16;67958;1275;1016207;-69
2023/05/23 15:17:06;;;;;;;;;;;;;;;39.60;20.77;98354.17;67933;1275;1016472;-62
2023/05/23 15:20:09;;;;;;;;;;;;;;;40.25;20.53;98351.71;67906;1275;1016472;-71
2023/05/23 15:23:11;;;;;;;;;;;;;;;40.88;20.25;98349.69;67931;1275;1016076;-72
2023/05/23 15:26:13;;;;;;;;;;;;;;;41.03;18.96;98351.31;67955;1275;1016014;-65
2023/05/23 15:29:16;;;;;;;;;;;;;;;40.86;18.62;98350.22;67907;1275;1016606;-65